Time;durP1;ratioP1;P1;durP2;ratioP2;P2;SDS_P1;SDS_P2;PMS_P1;PMS_P2;Temp;Humidity;BMP_temperature;BMP_pressure;BME280_temperature;BME280_humidity;BME280_pressure;Samples;Min_cycle;Max_cycle;Signal;HPM_P1;HPM_P2
2022/05/03 00:01:56;;;;;;;1.13;0.80;;;11.90;99.90;;;;;;4997994;28;20772;-68
2022/05/03 00:04:39;;;;;;;0.90;0.60;;;11.80;99.90;;;;;;4999771;28;20396;-69
2022/05/03 00:07:27;;;;;;;1.13;0.73;;;11.80;99.90;;;;;;5017576;28;20407;-67
2022/05/03 00:09:53;;;;;;;1.37;0.80;;;11.80;99.90;;;;;;5012191;28;20404;-69
2022/05/03 00:12:23;;;;;;;0.80;0.50;;;11.70;99.90;;;;;;4998238;28;20404;-67
2022/05/03 00:14:54;;;;;;;0.90;0.70;;;11.70;99.90;;;;;;5007576;28;20223;-67
2022/05/03 00:17:22;;;;;;;0.90;0.50;;;11.70;99.90;;;;;;4995116;28;20420;-68
2022/05/03 00:19:48;;;;;;;0.80;0.60;;;11.70;99.90;;;;;;4995111;28;20807;-68
2022/05/03 00:22:14;;;;;;;1.03;0.83;;;11.70;99.90;;;;;;4995272;28;20466;-67
2022/05/03 00:24:41;;;;;;;0.80;0.50;;;11.60;99.90;;;;;;4995301;28;20779;-67
2022/05/03 00:27:06;;;;;;;1.03;0.60;;;11.60;99.90;;;;;;4995131;28;20412;-67
2022/05/03 00:29:33;;;;;;;0.80;0.60;;;11.60;99.90;;;;;;4994876;28;20423;-68
2022/05/03 00:32:01;;;;;;;1.37;0.80;;;11.60;99.90;;;;;;4994583;28;20535;-67
2022/05/03 00:34:30;;;;;;;1.33;0.60;;;11.50;99.90;;;;;;4994984;28;20505;-67
2022/05/03 00:36:56;;;;;;;0.80;0.70;;;11.50;99.90;;;;;;4994973;28;20444;-67
2022/05/03 00:39:21;;;;;;;0.80;0.60;;;11.50;99.90;;;;;;4994935;28;20467;-67
2022/05/03 00:42:29;;;;;;;1.47;0.93;;;11.50;99.90;;;;;;4995170;28;20165;-68
2022/05/03 00:45:18;;;;;;;0.80;0.50;;;11.40;99.90;;;;;;5008972;28;20181;-68
2022/05/03 00:47:53;;;;;;;2.00;0.90;;;11.40;99.90;;;;;;4994882;28;20420;-68
2022/05/03 00:50:39;;;;;;;0.80;0.50;;;11.30;99.90;;;;;;4994758;28;20407;-69
2022/05/03 00:53:11;;;;;;;1.00;0.70;;;11.30;99.90;;;;;;5012014;28;20431;-68
2022/05/03 00:56:07;;;;;;;0.80;0.50;;;11.30;99.90;;;;;;5008202;28;20482;-68
2022/05/03 00:58:51;;;;;;;0.80;0.50;;;11.30;99.90;;;;;;4994709;28;20435;-69
2022/05/03 01:01:35;;;;;;;3.57;1.20;;;11.20;99.90;;;;;;4994731;28;20744;-68
2022/05/03 01:04:20;;;;;;;0.80;0.50;;;11.20;99.90;;;;;;4994614;28;20407;-68
2022/05/03 01:07:13;;;;;;;0.80;0.60;;;11.10;99.90;;;;;;5006095;28;20380;-68
2022/05/03 01:09:45;;;;;;;0.80;0.50;;;11.20;99.90;;;;;;5014207;28;20448;-68
2022/05/03 01:12:11;;;;;;;1.33;0.80;;;11.10;99.90;;;;;;4995324;28;20507;-66
2022/05/03 01:15:05;;;;;;;0.90;0.60;;;11.10;99.90;;;;;;5007126;28;20470;-67
2022/05/03 01:18:07;;;;;;;0.80;0.50;;;11.10;99.90;;;;;;5004097;28;20184;-67
2022/05/03 01:20:52;;;;;;;0.80;0.50;;;11.10;99.90;;;;;;4960020;29;20441;-67
2022/05/03 01:23:51;;;;;;;0.80;0.50;;;11.10;99.90;;;;;;5011195;28;20582;-66
2022/05/03 01:26:19;;;;;;;0.80;0.60;;;11.20;99.90;;;;;;5009703;28;20412;-67
2022/05/03 01:29:10;;;;;;;0.80;0.50;;;11.20;99.90;;;;;;4993841;28;21035;-67
2022/05/03 01:31:36;;;;;;;0.80;0.60;;;11.30;99.90;;;;;;4994252;28;20479;-68
2022/05/03 01:34:02;;;;;;;0.80;0.60;;;11.30;99.90;;;;;;4992739;28;20938;-69
2022/05/03 01:36:58;;;;;;;0.80;0.60;;;11.30;99.90;;;;;;4994090;28;20183;-68
2022/05/03 01:39:42;;;;;;;0.80;0.60;;;11.40;99.90;;;;;;4990482;28;20427;-68
2022/05/03 01:42:31;;;;;;;0.80;0.60;;;11.40;99.90;;;;;;5004316;28;20479;-67
2022/05/03 01:45:03;;;;;;;0.90;0.80;;;11.40;99.90;;;;;;5031275;28;20450;-68
2022/05/03 01:47:41;;;;;;;0.80;0.50;;;11.40;99.90;;;;;;5015573;28;20447;-69
2022/05/03 01:50:20;;;;;;;0.80;0.50;;;11.40;99.90;;;;;;5003882;28;20454;-68
2022/05/03 01:53:05;;;;;;;0.80;0.50;;;11.40;99.90;;;;;;4992412;28;20418;-68
2022/05/03 01:55:36;;;;;;;0.80;0.50;;;11.40;99.90;;;;;;4992087;28;21063;-68
2022/05/03 01:58:25;;;;;;;0.80;0.70;;;11.30;99.90;;;;;;4993123;28;21101;-69
2022/05/03 02:01:02;;;;;;;0.80;0.50;;;11.30;99.90;;;;;;4993415;28;20906;-69
2022/05/03 02:04:02;;;;;;;0.80;0.60;;;11.20;99.90;;;;;;4992133;28;20419;-69
2022/05/03 02:07:06;;;;;;;0.80;0.50;;;11.10;99.90;;;;;;4989430;28;20424;-67
2022/05/03 02:10:03;;;;;;;0.80;0.70;;;11.10;99.90;;;;;;4993036;28;20415;-67
2022/05/03 02:12:30;;;;;;;0.80;0.50;;;11.00;99.90;;;;;;5009548;28;20472;-68
2022/05/03 02:15:05;;;;;;;0.80;0.50;;;10.90;99.90;;;;;;5014198;28;20482;-69
2022/05/03 02:17:54;;;;;;;2.50;0.70;;;10.90;99.90;;;;;;5013159;28;20428;-68
2022/05/03 02:20:41;;;;;;;0.80;0.60;;;10.80;99.90;;;;;;5012873;28;20416;-69
2022/05/03 02:23:15;;;;;;;3.00;1.03;;;10.80;99.90;;;;;;5014260;28;20412;-67
2022/05/03 02:25:59;;;;;;;0.80;0.50;;;10.70;99.90;;;;;;5013673;28;20396;-69
2022/05/03 02:29:04;;;;;;;0.80;0.50;;;10.70;99.90;;;;;;5013283;28;20439;-68
2022/05/03 02:32:15;;;;;;;0.80;0.60;;;10.60;99.90;;;;;;5013174;28;20412;-68
2022/05/03 02:34:46;;;;;;;0.80;0.60;;;10.60;99.90;;;;;;4991182;28;20463;-67
2022/05/03 02:37:29;;;;;;;0.80;0.50;;;10.50;99.90;;;;;;5013766;28;20416;-68
2022/05/03 02:40:09;;;;;;;0.80;0.50;;;10.50;99.90;;;;;;5012790;28;20404;-69
2022/05/03 02:42:35;;;;;;;1.00;0.80;;;10.50;99.90;;;;;;5012880;28;20480;-70
2022/05/03 02:45:02;;;;;;;0.80;0.50;;;10.40;99.90;;;;;;5009227;28;20932;-69
2022/05/03 02:47:51;;;;;;;0.80;0.50;;;10.40;99.90;;;;;;4992549;28;20869;-69
2022/05/03 02:50:21;;;;;;;0.80;0.50;;;10.40;99.90;;;;;;5002118;28;20392;-69
2022/05/03 02:53:08;;;;;;;0.80;0.50;;;10.30;99.90;;;;;;5011201;28;20420;-68
2022/05/03 02:55:53;;;;;;;0.80;0.50;;;10.30;99.90;;;;;;4992823;28;20467;-69
2022/05/03 02:58:33;;;;;;;0.80;0.50;;;10.20;99.90;;;;;;4991687;28;20953;-68
2022/05/03 03:04:04;;;;;;;0.80;0.50;;;10.20;99.90;;;;;;5011895;28;20394;-69
2022/05/03 03:06:36;;;;;;;0.80;0.50;;;10.10;99.90;;;;;;5000452;28;20477;-69
2022/05/03 03:09:03;;;;;;;0.80;0.50;;;10.10;99.90;;;;;;4992007;28;20420;-69
2022/05/03 03:11:40;;;;;;;0.80;0.60;;;10.00;99.90;;;;;;5000722;28;20487;-70
2022/05/03 03:14:33;;;;;;;1.20;0.87;;;10.00;99.90;;;;;;5010049;28;20434;-68
2022/05/03 03:17:07;;;;;;;0.80;0.50;;;10.00;99.90;;;;;;5009345;28;20416;-69
2022/05/03 03:19:34;;;;;;;2.83;0.80;;;10.00;99.90;;;;;;4991995;28;20422;-68
2022/05/03 03:22:04;;;;;;;0.80;0.70;;;9.90;99.90;;;;;;4992491;28;20825;-68
2022/05/03 03:24:34;;;;;;;1.10;0.73;;;9.90;99.90;;;;;;4992282;28;20494;-68
2022/05/03 03:27:02;;;;;;;1.00;0.90;;;9.80;99.90;;;;;;4992262;28;20412;-68
2022/05/03 03:29:31;;;;;;;0.80;0.57;;;9.80;99.90;;;;;;4991937;28;20570;-68
2022/05/03 03:31:58;;;;;;;1.53;0.87;;;9.80;99.90;;;;;;4992244;28;20412;-68
2022/05/03 03:34:25;;;;;;;0.80;0.50;;;9.80;99.90;;;;;;4992195;28;20448;-68
2022/05/03 03:36:53;;;;;;;0.80;0.50;;;9.80;99.90;;;;;;4992237;28;20487;-69
2022/05/03 03:39:19;;;;;;;0.80;0.50;;;9.70;99.90;;;;;;4991892;28;20410;-68
2022/05/03 03:41:47;;;;;;;0.80;0.50;;;9.70;99.90;;;;;;4992924;28;20400;-69
2022/05/03 03:44:13;;;;;;;7.40;1.43;;;9.70;99.90;;;;;;4992185;28;20546;-68
2022/05/03 03:46:39;;;;;;;0.80;0.70;;;9.70;99.90;;;;;;4992110;28;20408;-69
2022/05/03 03:49:05;;;;;;;0.80;0.50;;;9.60;99.90;;;;;;4991913;28;20423;-68
2022/05/03 03:51:32;;;;;;;0.80;0.60;;;9.60;99.90;;;;;;4992234;28;20573;-69
2022/05/03 03:53:57;;;;;;;1.00;0.60;;;9.60;99.90;;;;;;4991949;28;20410;-69
2022/05/03 03:56:24;;;;;;;0.80;0.50;;;9.60;99.90;;;;;;4990877;28;20459;-68
2022/05/03 03:58:50;;;;;;;0.80;0.50;;;9.50;99.90;;;;;;4993365;28;20192;-68
2022/05/03 04:01:16;;;;;;;0.80;0.50;;;9.50;99.90;;;;;;4992534;28;20917;-69
2022/05/03 04:03:43;;;;;;;0.80;0.50;;;9.50;99.90;;;;;;4993153;28;20408;-69
2022/05/03 04:06:08;;;;;;;0.80;0.50;;;9.50;99.90;;;;;;4991340;28;20190;-69
2022/05/03 04:08:34;;;;;;;0.90;0.70;;;9.40;99.90;;;;;;4994455;28;20427;-70
2022/05/03 04:11:16;;;;;;;0.80;0.50;;;9.40;99.90;;;;;;4995231;28;20420;-68
2022/05/03 04:13:43;;;;;;;0.80;0.50;;;9.40;99.90;;;;;;4995483;28;20567;-68
2022/05/03 04:16:09;;;;;;;0.80;0.50;;;9.40;99.90;;;;;;4995248;28;20993;-69
2022/05/03 04:18:46;;;;;;;0.80;0.50;;;9.30;99.90;;;;;;4995393;28;20424;-69
2022/05/03 04:21:14;;;;;;;0.80;0.50;;;9.30;99.90;;;;;;4995087;28;20169;-69
2022/05/03 04:23:39;;;;;;;0.90;0.60;;;9.30;99.90;;;;;;4995283;28;20400;-69
2022/05/03 04:26:05;;;;;;;0.80;0.50;;;9.30;99.90;;;;;;4995256;28;20430;-69
2022/05/03 04:28:31;;;;;;;0.80;0.50;;;9.30;99.90;;;;;;4995223;28;20189;-69
2022/05/03 04:30:56;;;;;;;0.80;0.50;;;9.30;99.90;;;;;;4994828;28;20588;-69
2022/05/03 04:33:22;;;;;;;0.80;0.50;;;9.30;99.90;;;;;;4995192;28;20177;-68
2022/05/03 04:35:47;;;;;;;0.80;0.50;;;9.30;99.90;;;;;;4993697;28;20204;-69
2022/05/03 04:38:13;;;;;;;0.90;0.60;;;9.30;99.90;;;;;;4995039;28;20739;-69
2022/05/03 04:40:38;;;;;;;0.80;0.50;;;9.40;99.90;;;;;;4994706;28;20669;-69
2022/05/03 04:43:04;;;;;;;0.80;0.50;;;9.40;99.90;;;;;;4993719;28;20173;-69
2022/05/03 04:45:29;;;;;;;0.80;0.50;;;9.40;99.90;;;;;;4995048;28;20256;-69
2022/05/03 04:47:55;;;;;;;0.70;0.50;;;9.40;99.90;;;;;;4994401;28;20192;-69
2022/05/03 04:50:20;;;;;;;0.80;0.50;;;9.50;99.90;;;;;;4994541;28;20169;-68
2022/05/03 04:52:46;;;;;;;0.90;0.60;;;9.50;99.90;;;;;;4994786;28;20169;-69
2022/05/03 04:55:12;;;;;;;0.80;0.50;;;9.50;99.90;;;;;;4994742;28;20291;-70
2022/05/03 04:57:38;;;;;;;0.80;0.50;;;9.60;99.90;;;;;;4994881;28;20941;-69
2022/05/03 05:00:04;;;;;;;0.80;0.50;;;9.60;99.90;;;;;;4994432;28;20169;-69
2022/05/03 05:02:30;;;;;;;0.80;0.60;;;9.70;99.90;;;;;;4994590;28;20665;-69
2022/05/03 05:04:55;;;;;;;0.80;0.60;;;9.80;99.90;;;;;;4994548;28;20404;-69
2022/05/03 05:07:21;;;;;;;0.80;0.60;;;9.80;99.90;;;;;;4993153;28;20672;-69
2022/05/03 05:12:30;;;;;;;1.43;0.70;;;9.90;99.90;;;;;;4994406;28;20180;-69
2022/05/03 05:14:56;;;;;;;0.73;0.50;;;10.00;99.90;;;;;;4994282;28;20443;-69
2022/05/03 05:17:21;;;;;;;0.80;0.50;;;10.10;99.90;;;;;;4994334;28;20201;-69
2022/05/03 05:19:47;;;;;;;1.33;0.60;;;10.20;99.90;;;;;;4993919;28;20180;-68
2022/05/03 05:22:12;;;;;;;0.80;0.50;;;10.30;99.90;;;;;;4994145;28;20176;-70
2022/05/03 05:24:38;;;;;;;0.80;0.70;;;10.40;99.90;;;;;;4994204;28;20165;-69
2022/05/03 05:27:04;;;;;;;0.80;0.70;;;10.40;99.90;;;;;;4994193;28;20172;-69
2022/05/03 05:29:29;;;;;;;0.80;0.50;;;10.60;99.90;;;;;;4994300;28;20231;-69
2022/05/03 05:31:55;;;;;;;0.80;0.50;;;10.70;99.90;;;;;;4994759;28;20263;-68
2022/05/03 05:34:20;;;;;;;0.80;0.60;;;10.80;99.90;;;;;;4994534;28;20173;-69
2022/05/03 05:36:46;;;;;;;1.73;0.90;;;11.00;99.90;;;;;;5013155;28;20192;-70
2022/05/03 05:39:11;;;;;;;0.80;0.50;;;11.10;99.90;;;;;;5015554;28;20275;-67
2022/05/03 05:41:37;;;;;;;1.87;0.80;;;11.20;99.90;;;;;;5015010;28;20180;-70
2022/05/03 05:44:04;;;;;;;0.80;0.50;;;11.40;99.90;;;;;;5015389;28;20655;-68
2022/05/03 05:46:30;;;;;;;5.50;1.43;;;11.60;99.90;;;;;;5015645;28;20177;-69
2022/05/03 05:48:56;;;;;;;3.13;0.70;;;11.80;99.90;;;;;;5014442;28;20447;-68
2022/05/03 05:51:21;;;;;;;0.80;0.70;;;12.10;99.90;;;;;;5014460;28;20427;-70
2022/05/03 05:53:47;;;;;;;1.50;0.70;;;12.40;99.90;;;;;;5014423;28;20183;-70
2022/05/03 05:56:14;;;;;;;0.80;0.70;;;12.80;99.90;;;;;;5011635;28;20189;-69
2022/05/03 05:58:40;;;;;;;0.80;0.50;;;13.10;99.90;;;;;;4994430;28;20697;-69
2022/05/03 06:01:05;;;;;;;0.80;0.60;;;13.60;99.90;;;;;;4993216;28;20432;-69
2022/05/03 06:03:32;;;;;;;0.90;0.60;;;14.00;99.90;;;;;;4993419;28;20643;-69
2022/05/03 06:05:59;;;;;;;0.80;0.53;;;14.50;99.90;;;;;;4993352;28;20416;-68
2022/05/03 06:08:25;;;;;;;0.90;0.67;;;15.00;99.90;;;;;;4993444;28;20428;-70
2022/05/03 06:10:51;;;;;;;0.80;0.60;;;15.60;99.90;;;;;;4993574;28;20408;-69
2022/05/03 06:13:17;;;;;;;1.00;0.70;;;16.10;99.90;;;;;;4993190;28;20490;-69
2022/05/03 06:15:43;;;;;;;0.90;0.70;;;16.60;99.90;;;;;;4993234;28;20478;-69
2022/05/03 06:18:09;;;;;;;0.80;0.57;;;17.00;99.90;;;;;;4993068;28;20424;-69
2022/05/03 06:20:36;;;;;;;1.13;0.80;;;17.50;99.90;;;;;;4992913;28;20403;-69
2022/05/03 06:23:03;;;;;;;0.80;0.50;;;18.00;99.90;;;;;;4993119;28;20169;-69
2022/05/03 06:25:28;;;;;;;1.27;1.03;;;18.40;99.90;;;;;;4993105;28;20499;-69
2022/05/03 06:27:54;;;;;;;0.87;0.70;;;18.90;99.90;;;;;;5005115;28;20427;-70
2022/05/03 06:30:19;;;;;;;1.47;0.90;;;19.40;99.90;;;;;;5005707;28;20169;-70
2022/05/03 06:32:45;;;;;;;0.80;0.50;;;19.90;99.90;;;;;;4998061;28;20670;-70
2022/05/03 06:35:13;;;;;;;0.80;0.50;;;20.40;99.90;;;;;;4994105;28;20254;-69
2022/05/03 06:37:42;;;;;;;0.90;0.70;;;20.90;99.90;;;;;;5015030;28;20184;-70
2022/05/03 06:40:08;;;;;;;0.90;0.70;;;21.50;99.90;;;;;;5006439;28;20443;-70
2022/05/03 06:42:39;;;;;;;0.80;0.60;;;21.90;99.90;;;;;;5006467;28;20408;-70
2022/05/03 06:45:06;;;;;;;0.90;0.60;;;22.40;99.90;;;;;;5004209;28;20423;-70
2022/05/03 06:47:32;;;;;;;0.87;0.60;;;22.70;99.90;;;;;;5019261;28;20494;-69
2022/05/03 06:49:57;;;;;;;0.80;0.50;;;23.10;99.90;;;;;;4991897;28;20444;-69
2022/05/03 06:52:24;;;;;;;0.90;0.70;;;23.70;99.90;;;;;;4992782;28;20530;-69
2022/05/03 06:54:49;;;;;;;1.10;0.80;;;24.60;98.80;;;;;;4992492;28;20200;-70
2022/05/03 06:57:15;;;;;;;0.90;0.50;;;25.40;96.30;;;;;;4992551;28;20424;-69
2022/05/03 06:59:40;;;;;;;0.93;0.70;;;26.20;93.40;;;;;;4991977;28;20180;-69
2022/05/03 07:02:06;;;;;;;1.00;0.70;;;27.00;90.40;;;;;;4992537;28;20180;-69
2022/05/03 07:04:31;;;;;;;5.17;0.70;;;27.80;84.60;;;;;;4992151;28;20176;-67
2022/05/03 07:06:57;;;;;;;1.40;0.97;;;28.50;78.80;;;;;;4992601;28;20183;-67
2022/05/03 07:09:22;;;;;;;1.30;0.90;;;29.10;73.50;;;;;;4992266;28;20175;-67
2022/05/03 07:11:48;;;;;;;1.53;1.43;;;29.70;68.40;;;;;;4992209;28;20173;-67
2022/05/03 07:14:15;;;;;;;1.27;0.80;;;30.30;64.30;;;;;;4990887;28;20634;-67
2022/05/03 07:16:41;;;;;;;1.00;0.80;;;30.70;61.10;;;;;;4992150;28;20161;-68
2022/05/03 07:24:35;;;;;;;0.90;0.70;;;32.70;54.50;;;;;;4992553;28;20446;-67
2022/05/03 07:27:01;;;;;;;0.90;0.60;;;33.50;52.90;;;;;;4991968;28;20452;-69
2022/05/03 07:29:27;;;;;;;1.00;0.83;;;34.20;50.90;;;;;;4991838;28;20678;-69
2022/05/03 07:31:53;;;;;;;0.90;0.77;;;34.90;49.70;;;;;;4992009;28;20447;-69
2022/05/03 07:34:18;;;;;;;0.90;0.70;;;35.50;48.00;;;;;;4991986;28;20220;-69
2022/05/03 07:36:44;;;;;;;0.90;0.80;;;36.00;46.30;;;;;;4992065;28;20408;-70
2022/05/03 07:39:10;;;;;;;1.10;0.90;;;36.60;44.50;;;;;;4992045;28;20555;-70
2022/05/03 07:41:36;;;;;;;0.90;0.73;;;37.20;42.80;;;;;;4991668;28;20175;-68
2022/05/03 07:44:02;;;;;;;1.03;0.90;;;37.70;41.10;;;;;;4995332;28;20494;-68
2022/05/03 07:46:27;;;;;;;1.00;0.90;;;38.20;40.30;;;;;;4994406;28;20503;-68
2022/05/03 07:48:54;;;;;;;1.20;1.00;;;38.80;39.20;;;;;;4995650;28;20666;-68
2022/05/03 07:51:20;;;;;;;0.90;0.77;;;39.40;38.30;;;;;;4995435;28;20186;-68
2022/05/03 07:53:46;;;;;;;1.00;0.90;;;39.90;37.30;;;;;;4995433;28;20777;-68
2022/05/03 07:56:11;;;;;;;1.00;0.80;;;40.40;36.10;;;;;;4995420;28;20587;-67
2022/05/03 07:58:37;;;;;;;1.00;0.90;;;40.80;35.30;;;;;;4995513;28;20678;-68
2022/05/03 08:01:04;;;;;;;0.90;0.73;;;41.30;34.10;;;;;;4995297;28;20165;-67
2022/05/03 08:03:30;;;;;;;0.97;0.80;;;41.70;33.30;;;;;;4995530;28;20195;-67
2022/05/03 08:05:56;;;;;;;1.00;0.90;;;42.10;32.40;;;;;;4995530;28;20495;-68
2022/05/03 08:08:21;;;;;;;1.43;1.30;;;42.60;32.20;;;;;;5003280;28;20275;-68
2022/05/03 08:10:48;;;;;;;1.00;0.90;;;43.00;31.60;;;;;;5008180;28;20177;-69
2022/05/03 08:13:14;;;;;;;1.50;1.10;;;43.50;30.90;;;;;;5009177;28;20169;-68
2022/05/03 08:15:40;;;;;;;0.90;0.80;;;43.90;30.30;;;;;;5007021;28;20442;-69
2022/05/03 08:18:06;;;;;;;0.90;0.77;;;44.20;29.70;;;;;;4995081;28;20196;-68
2022/05/03 08:20:32;;;;;;;4.60;1.00;;;44.60;29.40;;;;;;4994812;28;20201;-68
2022/05/03 08:22:59;;;;;;;1.00;0.90;;;45.00;28.70;;;;;;4994925;28;20391;-70
2022/05/03 08:25:25;;;;;;;1.27;1.17;;;45.40;28.40;;;;;;4994770;28;20437;-68
2022/05/03 08:27:51;;;;;;;1.10;1.00;;;45.80;28.20;;;;;;4994636;28;20406;-68
2022/05/03 08:30:17;;;;;;;1.00;0.90;;;46.20;28.00;;;;;;4993409;28;20591;-68
2022/05/03 08:32:42;;;;;;;1.10;1.00;;;46.60;27.70;;;;;;4994925;28;20199;-68
2022/05/03 08:35:08;;;;;;;1.10;1.00;;;46.90;27.40;;;;;;4994736;28;20678;-68
2022/05/03 08:43:05;;;;;;;1.00;0.90;;;47.90;26.50;;;;;;4994581;28;20887;-68
2022/05/03 08:45:30;;;;;;;1.17;1.07;;;48.30;26.10;;;;;;4993479;28;20416;-68
2022/05/03 08:47:57;;;;;;;1.03;0.93;;;48.50;25.70;;;;;;4994440;28;21084;-68
2022/05/03 08:50:24;;;;;;;1.10;1.00;;;48.70;25.50;;;;;;4992980;28;20284;-68
2022/05/03 08:52:50;;;;;;;1.37;1.00;;;48.80;25.10;;;;;;4994075;28;20389;-68
2022/05/03 08:55:17;;;;;;;1.10;1.00;;;49.00;24.90;;;;;;4994164;28;20524;-68
2022/05/03 08:57:43;;;;;;;1.13;1.03;;;49.10;24.60;;;;;;4994275;28;20407;-68
2022/05/03 09:00:10;;;;;;;1.13;1.03;;;49.30;24.50;;;;;;4994054;28;20477;-70
2022/05/03 09:02:51;;;;;;;1.27;1.17;;;49.60;24.10;;;;;;4994271;28;20496;-68
2022/05/03 09:05:18;;;;;;;1.17;1.07;;;49.90;24.00;;;;;;4994173;28;20383;-69
2022/05/03 09:07:56;;;;;;;1.30;1.20;;;50.20;23.90;;;;;;4994247;28;20409;-68
2022/05/03 09:10:24;;;;;;;1.47;1.20;;;50.60;23.80;;;;;;4993789;28;20807;-68
2022/05/03 09:12:50;;;;;;;1.10;1.00;;;50.70;23.50;;;;;;4993992;28;20418;-69
2022/05/03 09:15:36;;;;;;;1.20;1.10;;;50.80;23.40;;;;;;4993932;28;20924;-69
2022/05/03 09:18:02;;;;;;;1.30;1.20;;;50.80;23.10;;;;;;4993632;28;20490;-68
2022/05/03 09:26:23;;;;;;;1.20;1.10;;;51.40;22.60;;;;;;4993919;28;20414;-68
2022/05/03 09:28:53;;;;;;;1.30;1.20;;;51.70;22.30;;;;;;4993699;28;20821;-68
2022/05/03 09:31:31;;;;;;;1.40;1.30;;;51.90;22.20;;;;;;4993484;28;20445;-68
2022/05/03 09:34:00;;;;;;;1.30;1.20;;;52.30;22.20;;;;;;4993659;28;20458;-68
2022/05/03 09:36:26;;;;;;;1.17;1.07;;;52.50;21.90;;;;;;4993355;28;20830;-68
2022/05/03 09:38:55;;;;;;;1.40;1.30;;;52.80;21.80;;;;;;4993521;28;20399;-68
2022/05/03 09:41:21;;;;;;;1.20;1.10;;;53.00;21.70;;;;;;4993117;28;20437;-68
2022/05/03 09:44:06;;;;;;;1.30;1.20;;;53.40;21.70;;;;;;4993508;28;20385;-68
2022/05/03 09:46:52;;;;;;;1.30;1.20;;;53.60;21.60;;;;;;4993263;28;20523;-68
2022/05/03 09:49:20;;;;;;;1.23;1.13;;;53.90;21.50;;;;;;4993449;28;20462;-69
2022/05/03 09:51:46;;;;;;;1.30;1.20;;;54.10;21.20;;;;;;4993089;28;20507;-68
2022/05/03 09:54:13;;;;;;;1.30;1.20;;;54.20;21.10;;;;;;4992027;28;20444;-68
2022/05/03 09:56:41;;;;;;;1.30;1.20;;;54.10;21.10;;;;;;4993230;28;20463;-70
2022/05/03 09:59:08;;;;;;;1.30;1.20;;;54.10;21.00;;;;;;4993229;28;20460;-69
2022/05/03 10:01:35;;;;;;;1.40;1.30;;;53.90;20.90;;;;;;4992925;28;20827;-68
2022/05/03 10:04:01;;;;;;;1.30;1.20;;;53.70;20.70;;;;;;4993351;28;20418;-68
2022/05/03 10:06:29;;;;;;;1.30;1.20;;;53.50;20.70;;;;;;4990295;28;20496;-70
2022/05/03 10:08:56;;;;;;;1.27;1.17;;;53.20;20.60;;;;;;4992907;28;21000;-69
2022/05/03 10:11:26;;;;;;;1.27;1.17;;;52.80;20.70;;;;;;4992793;28;20402;-68
2022/05/03 10:13:55;;;;;;;1.20;1.10;;;52.80;20.80;;;;;;4973631;28;20830;-68
2022/05/03 10:22:12;;;;;;;1.20;1.10;;;53.50;20.70;;;;;;4992505;28;20489;-68
2022/05/03 10:24:54;;;;;;;1.50;1.40;;;54.00;20.80;;;;;;4992759;28;20534;-68
2022/05/03 10:27:25;;;;;;;1.80;1.70;;;54.50;20.70;;;;;;4992418;28;20251;-68
2022/05/03 10:30:16;;;;;;;1.60;1.50;;;54.90;20.60;;;;;;4992424;28;20474;-68
2022/05/03 10:32:42;;;;;;;1.80;1.70;;;55.30;20.50;;;;;;4992584;28;20416;-70
2022/05/03 10:35:36;;;;;;;1.70;1.60;;;55.70;20.50;;;;;;4992590;28;20813;-71
2022/05/03 10:38:04;;;;;;;1.70;1.60;;;56.10;20.50;;;;;;4992152;28;20258;-69
2022/05/03 10:40:32;;;;;;;1.80;1.70;;;56.50;20.40;;;;;;4991937;28;20971;-69
2022/05/03 10:43:10;;;;;;;1.60;1.50;;;56.90;20.40;;;;;;4992506;28;20412;-68
2022/05/03 10:46:07;;;;;;;1.80;1.70;;;57.10;20.10;;;;;;4991961;28;20456;-69
2022/05/03 10:48:36;;;;;;;1.60;1.50;;;57.40;20.10;;;;;;4992435;28;20424;-68
2022/05/03 10:51:03;;;;;;;1.83;1.73;;;57.80;20.20;;;;;;4992226;28;20415;-68
2022/05/03 10:53:32;;;;;;;1.80;1.70;;;58.00;19.90;;;;;;4992210;28;20445;-68
2022/05/03 10:56:18;;;;;;;2.00;1.90;;;58.20;19.90;;;;;;4992068;28;20439;-68
2022/05/03 10:59:05;;;;;;;2.60;2.47;;;58.40;19.80;;;;;;4979539;28;20439;-68
2022/05/03 11:01:30;;;;;;;1.90;1.80;;;58.60;19.80;;;;;;4991864;28;20435;-69
2022/05/03 11:03:59;;;;;;;2.20;2.10;;;58.80;19.60;;;;;;4992046;28;20905;-68
2022/05/03 11:06:25;;;;;;;2.50;2.40;;;59.10;19.70;;;;;;4992210;28;20566;-69
2022/05/03 11:09:05;;;;;;;2.13;2.03;;;59.40;19.70;;;;;;4991830;28;20495;-68
2022/05/03 11:11:42;;;;;;;2.20;2.10;;;59.60;19.70;;;;;;4991819;28;20423;-68
2022/05/03 11:16:47;;;;;;;2.00;1.90;;;60.00;19.40;;;;;;4993654;28;20403;-68
2022/05/03 11:19:21;;;;;;;2.20;2.10;;;60.20;19.20;;;;;;4996171;28;20448;-70
2022/05/03 11:21:49;;;;;;;2.40;2.30;;;60.30;19.10;;;;;;4995961;28;20416;-69
2022/05/03 11:24:19;;;;;;;2.60;2.50;;;60.60;19.10;;;;;;4996115;28;20470;-69
2022/05/03 11:26:45;;;;;;;2.63;2.53;;;60.80;19.00;;;;;;4995877;28;20459;-68
2022/05/03 11:29:13;;;;;;;2.30;2.20;;;61.10;18.80;;;;;;4995790;28;20913;-70
2022/05/03 11:31:39;;;;;;;2.50;2.40;;;61.20;18.70;;;;;;4995694;28;20415;-68
2022/05/03 11:34:06;;;;;;;2.50;2.40;;;61.30;18.70;;;;;;4996070;28;20918;-68
2022/05/03 11:36:33;;;;;;;2.60;2.50;;;61.40;18.70;;;;;;4995968;28;20165;-68
2022/05/03 11:39:00;;;;;;;2.50;2.40;;;61.60;18.60;;;;;;4996064;28;20431;-68
2022/05/03 11:41:28;;;;;;;2.63;2.53;;;61.80;18.70;;;;;;4995685;28;20419;-68
2022/05/03 11:43:55;;;;;;;2.70;2.60;;;62.00;18.70;;;;;;4992215;28;20438;-68
2022/05/03 11:46:22;;;;;;;2.43;2.33;;;62.20;18.70;;;;;;4995978;28;20936;-68
2022/05/03 11:48:59;;;;;;;2.50;2.40;;;62.30;18.70;;;;;;4995940;28;20534;-68
2022/05/03 11:57:10;;;;;;;2.80;2.70;;;62.80;18.50;;;;;;4986486;28;20505;-69
2022/05/03 11:59:36;;;;;;;3.00;2.90;;;63.00;18.50;;;;;;4995810;28;20448;-68
2022/05/03 12:02:22;;;;;;;2.90;2.80;;;62.90;18.40;;;;;;4995202;28;20481;-69
2022/05/03 12:05:11;;;;;;;3.20;3.10;;;62.90;18.40;;;;;;4995470;28;20643;-69
2022/05/03 12:07:37;;;;;;;3.17;3.07;;;63.10;18.40;;;;;;4995592;28;20412;-68
2022/05/03 12:10:20;;;;;;;3.00;2.90;;;63.10;18.30;;;;;;5010548;28;20477;-69
2022/05/03 12:12:48;;;;;;;2.77;2.67;;;63.10;18.30;;;;;;4995497;28;20725;-70
2022/05/03 12:15:24;;;;;;;3.00;2.90;;;63.10;18.20;;;;;;4994060;28;20447;-68
2022/05/03 12:17:59;;;;;;;2.70;2.60;;;62.80;18.00;;;;;;4995312;28;20438;-68
2022/05/03 12:20:25;;;;;;;2.80;2.70;;;62.60;18.00;;;;;;4993716;28;20944;-69
2022/05/03 12:23:13;;;;;;;2.70;2.60;;;62.30;18.10;;;;;;4993814;28;20431;-68
2022/05/03 12:25:44;;;;;;;3.10;3.00;;;61.90;18.10;;;;;;5010126;28;20459;-68
2022/05/03 12:28:10;;;;;;;3.10;3.00;;;61.50;18.00;;;;;;4994401;28;20430;-68
2022/05/03 12:30:36;;;;;;;2.40;2.30;;;61.20;18.10;;;;;;4993621;28;20431;-68
2022/05/03 12:33:04;;;;;;;2.20;2.10;;;60.80;18.10;;;;;;4994684;28;20416;-68
2022/05/03 12:35:37;;;;;;;2.30;2.20;;;60.20;18.10;;;;;;4994921;28;20183;-68
2022/05/03 12:38:14;;;;;;;2.10;2.00;;;59.70;18.00;;;;;;4993733;28;20439;-69
2022/05/03 12:40:53;;;;;;;2.00;1.90;;;59.30;18.10;;;;;;4994783;28;20403;-68
2022/05/03 12:43:21;;;;;;;2.00;1.90;;;58.70;18.10;;;;;;4994787;28;20434;-70
2022/05/03 12:46:07;;;;;;;1.90;1.80;;;58.50;18.10;;;;;;4993543;28;20448;-68
2022/05/03 12:48:36;;;;;;;1.93;1.83;;;58.10;18.20;;;;;;4993484;28;20434;-68
2022/05/03 12:51:03;;;;;;;1.93;1.83;;;57.60;18.10;;;;;;4995083;28;20475;-68
2022/05/03 12:53:32;;;;;;;1.80;1.70;;;57.30;18.20;;;;;;4996144;28;20964;-69
2022/05/03 12:58:21;;;;;;;2.00;1.90;;;57.00;18.30;;;;;;4995796;28;20926;-68
2022/05/03 12:58:45;;;;;;;2.27;2.17;;;56.70;18.30;;;;;;4994669;28;20934;-68
2022/05/03 13:01:11;;;;;;;1.60;1.50;;;56.50;18.30;;;;;;4996431;28;20411;-68
2022/05/03 13:03:38;;;;;;;1.50;1.40;;;56.20;18.30;;;;;;4995432;28;20398;-68
2022/05/03 13:06:03;;;;;;;1.60;1.50;;;55.90;18.30;;;;;;4994433;28;20879;-70
2022/05/03 13:08:29;;;;;;;1.50;1.40;;;55.70;18.30;;;;;;4994263;28;20535;-68
2022/05/03 13:10:55;;;;;;;1.50;1.40;;;55.50;18.40;;;;;;4993987;28;20197;-68
2022/05/03 13:13:21;;;;;;;1.47;1.37;;;55.30;18.40;;;;;;4994053;28;20173;-68
2022/05/03 13:15:46;;;;;;;2.60;1.70;;;55.00;18.40;;;;;;4994240;28;20181;-68
2022/05/03 13:18:12;;;;;;;1.40;1.30;;;54.80;18.40;;;;;;4994058;28;20429;-70
2022/05/03 13:20:41;;;;;;;1.60;1.50;;;54.40;18.40;;;;;;4992745;28;20678;-68
2022/05/03 13:23:06;;;;;;;1.70;1.60;;;54.20;18.50;;;;;;4989399;28;20648;-68
2022/05/03 13:25:32;;;;;;;1.70;1.60;;;53.90;18.50;;;;;;4993853;28;20448;-70
2022/05/03 13:27:57;;;;;;;1.40;1.30;;;53.60;18.50;;;;;;4993889;28;20212;-68
2022/05/03 13:30:24;;;;;;;1.30;1.20;;;53.20;18.50;;;;;;4993871;28;20248;-68
2022/05/03 13:32:49;;;;;;;1.33;1.23;;;52.80;18.50;;;;;;4993712;28;20169;-68
2022/05/03 13:40:28;;;;;;;1.67;1.57;;;52.50;18.50;;;;;;4993929;28;20386;-68
2022/05/03 13:40:45;;;;;;;1.40;1.30;;;51.80;18.60;;;;;;4993767;28;20775;-68
2022/05/03 13:43:10;;;;;;;1.50;1.40;;;51.30;18.70;;;;;;4993575;28;20398;-68
2022/05/03 13:45:36;;;;;;;1.30;1.20;;;50.90;18.80;;;;;;4992260;28;20203;-68
2022/05/03 13:48:01;;;;;;;1.30;1.20;;;50.20;18.80;;;;;;4993635;28;20188;-68